Time;durP1;ratioP1;P1;durP2;ratioP2;P2;SDS_P1;SDS_P2;PMS_P1;PMS_P2;Temp;Humidity;BMP_temperature;BMP_pressure;BME280_temperature;BME280_humidity;BME280_pressure;Samples;Min_cycle;Max_cycle;Signal;HPM_P1;HPM_P2
2021/10/27 00:00:55;;;;;;;82.38;13.70;;;12.40;99.90;;;;;;5027543;28;20026;-73
2021/10/27 00:03:21;;;;;;;73.00;13.13;;;12.40;99.90;;;;;;5014494;28;20029;-72
2021/10/27 00:05:47;;;;;;;69.57;12.25;;;12.20;99.90;;;;;;5014639;28;20053;-73
2021/10/27 00:08:13;;;;;;;73.40;16.10;;;12.40;99.90;;;;;;5030166;28;20645;-73
2021/10/27 00:10:38;;;;;;;62.47;15.40;;;12.40;99.90;;;;;;5028162;28;20061;-73
2021/10/27 00:13:06;;;;;;;89.78;16.67;;;12.40;99.90;;;;;;5033551;28;20057;-72
2021/10/27 00:15:32;;;;;;;87.25;19.45;;;12.40;99.90;;;;;;5033960;28;20022;-72
2021/10/27 00:18:00;;;;;;;75.15;19.05;;;12.40;99.90;;;;;;5034209;28;20384;-72
2021/10/27 00:20:25;;;;;;;75.57;19.05;;;12.40;99.90;;;;;;5033427;28;20021;-73
2021/10/27 00:22:51;;;;;;;63.05;17.92;;;12.40;99.90;;;;;;5033889;28;20030;-72
2021/10/27 00:25:17;;;;;;;85.93;22.48;;;12.40;99.90;;;;;;5033955;28;20021;-72
2021/10/27 00:27:42;;;;;;;82.28;21.10;;;12.40;99.90;;;;;;5034120;28;20034;-73
2021/10/27 00:30:09;;;;;;;102.03;24.67;;;12.50;99.90;;;;;;5033655;28;20536;-73
2021/10/27 00:32:34;;;;;;;86.00;22.35;;;12.40;99.90;;;;;;5034041;28;20154;-73
2021/10/27 00:35:00;;;;;;;92.30;23.75;;;12.50;99.90;;;;;;5033665;28;20508;-73
2021/10/27 00:37:26;;;;;;;76.78;22.88;;;12.50;99.90;;;;;;5033918;28;20017;-73
2021/10/27 00:39:51;;;;;;;99.70;24.55;;;12.50;99.90;;;;;;5033894;28;20021;-73
2021/10/27 00:42:17;;;;;;;102.55;27.70;;;12.50;99.90;;;;;;5033199;28;20029;-73
2021/10/27 00:44:43;;;;;;;89.15;25.85;;;12.50;99.90;;;;;;5033360;28;20045;-73
2021/10/27 00:47:11;;;;;;;94.18;26.92;;;12.60;99.90;;;;;;5033529;28;20392;-73
2021/10/27 00:49:40;;;;;;;89.25;24.75;;;12.50;99.90;;;;;;5033501;28;20057;-72
2021/10/27 00:52:10;;;;;;;90.07;26.95;;;12.50;99.90;;;;;;5033347;28;20025;-72
2021/10/27 00:54:36;;;;;;;79.97;26.00;;;12.50;99.90;;;;;;5033085;28;20026;-73
2021/10/27 00:57:02;;;;;;;80.35;29.63;;;12.50;99.90;;;;;;5033639;28;20369;-72
2021/10/27 00:59:28;;;;;;;91.18;30.13;;;12.50;99.90;;;;;;5033302;28;20017;-72
2021/10/27 01:01:56;;;;;;;102.47;28.42;;;12.50;99.90;;;;;;5033456;28;20104;-72
2021/10/27 01:04:23;;;;;;;99.75;28.63;;;12.50;99.90;;;;;;5033228;28;20481;-72
2021/10/27 01:06:49;;;;;;;97.90;29.90;;;12.50;99.90;;;;;;5032930;28;20029;-72
2021/10/27 01:09:15;;;;;;;104.38;28.00;;;12.50;99.90;;;;;;5033269;28;20022;-72
2021/10/27 01:11:42;;;;;;;89.68;28.17;;;12.50;99.90;;;;;;5033372;28;20030;-72
2021/10/27 01:14:08;;;;;;;108.93;29.58;;;12.50;99.90;;;;;;5033090;28;20033;-72
2021/10/27 01:16:35;;;;;;;94.53;30.98;;;12.50;99.90;;;;;;5032533;28;20033;-73
2021/10/27 01:19:00;;;;;;;101.80;30.63;;;12.50;99.90;;;;;;5033125;28;20025;-72
2021/10/27 01:21:30;;;;;;;101.57;27.80;;;12.60;99.90;;;;;;5033121;28;20396;-72
2021/10/27 01:24:00;;;;;;;117.85;28.92;;;12.60;99.90;;;;;;5033049;28;20105;-72
2021/10/27 01:26:27;;;;;;;94.20;28.00;;;12.60;99.90;;;;;;5033145;28;20411;-72
2021/10/27 01:28:53;;;;;;;100.53;26.80;;;12.60;99.90;;;;;;5031827;28;20095;-72
2021/10/27 01:31:19;;;;;;;117.38;30.40;;;12.60;99.90;;;;;;5031145;28;20028;-72
2021/10/27 01:33:45;;;;;;;116.65;28.52;;;12.60;99.90;;;;;;5032913;28;20441;-72
2021/10/27 01:36:16;;;;;;;103.85;27.40;;;12.70;99.90;;;;;;5032973;28;20024;-72
2021/10/27 01:38:42;;;;;;;88.82;26.70;;;12.70;99.90;;;;;;5032608;28;20022;-73
2021/10/27 01:41:09;;;;;;;83.47;27.25;;;12.70;99.90;;;;;;5033025;28;20033;-72
2021/10/27 01:43:54;;;;;;;96.50;25.88;;;12.70;99.90;;;;;;5032907;28;20025;-72
2021/10/27 01:46:29;;;;;;;85.30;26.50;;;12.80;99.90;;;;;;5031600;28;20033;-72
2021/10/27 01:48:56;;;;;;;94.68;25.58;;;12.70;99.90;;;;;;5032864;28;20017;-72
2021/10/27 01:51:22;;;;;;;98.25;27.48;;;12.80;99.90;;;;;;5032228;28;20021;-72
2021/10/27 01:53:47;;;;;;;110.35;27.98;;;12.80;99.90;;;;;;5032743;28;20022;-72
2021/10/27 01:56:13;;;;;;;94.68;26.13;;;12.80;99.90;;;;;;5015049;28;20503;-72
2021/10/27 01:58:38;;;;;;;110.82;27.92;;;12.80;99.90;;;;;;5031507;28;20113;-72
2021/10/27 02:01:04;;;;;;;103.80;28.23;;;12.80;99.90;;;;;;5032173;28;20029;-72
2021/10/27 02:03:29;;;;;;;118.80;28.95;;;12.80;99.90;;;;;;5032702;28;20499;-72
2021/10/27 02:05:55;;;;;;;99.60;28.92;;;12.80;99.90;;;;;;5032615;28;20504;-72
2021/10/27 02:08:20;;;;;;;88.40;26.55;;;12.80;99.90;;;;;;5032392;28;20075;-72
2021/10/27 02:10:46;;;;;;;108.13;26.98;;;12.80;99.90;;;;;;5032854;28;20045;-72
2021/10/27 02:13:11;;;;;;;110.75;27.08;;;12.80;99.90;;;;;;5032604;28;20412;-72
2021/10/27 02:15:37;;;;;;;98.22;27.25;;;12.80;99.90;;;;;;5035739;28;20053;-72
2021/10/27 02:18:03;;;;;;;110.65;27.75;;;12.80;99.90;;;;;;5036767;28;20017;-72
2021/10/27 02:20:28;;;;;;;104.57;26.48;;;12.80;99.90;;;;;;5035772;28;20033;-72
2021/10/27 02:22:54;;;;;;;103.63;26.00;;;12.80;99.90;;;;;;5036352;28;20030;-72
2021/10/27 02:25:19;;;;;;;86.25;23.08;;;12.80;99.90;;;;;;5036079;28;20032;-72
2021/10/27 02:27:45;;;;;;;87.45;23.67;;;12.80;99.90;;;;;;5035632;28;20022;-72
2021/10/27 02:30:11;;;;;;;103.72;26.25;;;12.80;99.90;;;;;;5036214;28;20074;-72
2021/10/27 02:32:37;;;;;;;105.28;27.52;;;12.80;99.90;;;;;;5034724;28;20029;-72
2021/10/27 02:35:03;;;;;;;101.30;24.48;;;12.80;99.90;;;;;;5035937;28;20041;-72
2021/10/27 02:37:28;;;;;;;122.25;28.45;;;12.80;99.90;;;;;;5035938;28;20028;-72
2021/10/27 02:39:54;;;;;;;110.28;26.48;;;12.80;99.90;;;;;;5036037;28;20469;-72
2021/10/27 02:42:20;;;;;;;126.07;25.75;;;12.90;99.90;;;;;;5035301;28;20021;-73
2021/10/27 02:44:45;;;;;;;92.00;24.85;;;12.80;99.90;;;;;;5035522;28;20069;-73
2021/10/27 02:47:11;;;;;;;97.45;26.83;;;12.90;99.90;;;;;;5036247;28;20029;-72
2021/10/27 02:49:36;;;;;;;111.82;26.90;;;12.80;99.90;;;;;;5035633;28;20025;-72
2021/10/27 02:52:02;;;;;;;108.32;27.25;;;12.80;99.90;;;;;;5035576;28;20033;-72
2021/10/27 02:54:28;;;;;;;104.47;26.08;;;12.80;99.90;;;;;;5035472;28;20027;-72
2021/10/27 02:56:53;;;;;;;112.07;27.63;;;12.90;99.90;;;;;;5035065;28;20026;-72
2021/10/27 02:59:19;;;;;;;105.20;26.90;;;12.90;99.90;;;;;;5035731;28;20598;-72
2021/10/27 03:01:44;;;;;;;105.45;24.67;;;12.90;99.90;;;;;;5035471;28;20552;-72
2021/10/27 03:04:10;;;;;;;114.00;26.83;;;12.90;99.90;;;;;;5035613;28;20036;-72
2021/10/27 03:06:36;;;;;;;103.45;26.42;;;12.90;99.90;;;;;;5035343;28;20396;-72
2021/10/27 03:09:01;;;;;;;98.22;26.58;;;12.90;99.90;;;;;;5034798;28;20032;-72
2021/10/27 03:11:27;;;;;;;98.47;25.70;;;12.90;99.90;;;;;;5035205;28;20392;-72
2021/10/27 03:13:52;;;;;;;112.78;24.70;;;12.80;99.90;;;;;;5035445;28;20413;-72
2021/10/27 03:16:18;;;;;;;86.40;22.83;;;12.90;99.90;;;;;;5032129;28;20450;-73
2021/10/27 03:18:43;;;;;;;101.75;24.20;;;12.90;99.90;;;;;;5030540;28;20029;-72
2021/10/27 03:21:09;;;;;;;91.13;23.40;;;12.90;99.90;;;;;;5015298;28;20022;-72
2021/10/27 03:23:34;;;;;;;95.95;23.23;;;12.90;99.90;;;;;;5015801;28;20026;-72
2021/10/27 03:26:00;;;;;;;94.80;24.38;;;12.90;99.90;;;;;;5032137;28;20064;-72
2021/10/27 03:28:25;;;;;;;109.70;24.45;;;13.00;99.90;;;;;;5034963;28;20133;-72
2021/10/27 03:30:51;;;;;;;101.40;22.75;;;13.00;99.90;;;;;;5034866;28;20044;-72
2021/10/27 03:33:16;;;;;;;112.90;23.95;;;13.00;99.90;;;;;;5034873;28;20388;-72
2021/10/27 03:35:42;;;;;;;109.57;20.88;;;13.00;99.90;;;;;;5034482;28;20025;-73
2021/10/27 03:38:08;;;;;;;99.70;24.73;;;13.00;99.90;;;;;;5034741;28;20025;-72
2021/10/27 03:40:33;;;;;;;109.72;21.92;;;13.00;99.90;;;;;;5034640;28;20033;-73
2021/10/27 03:42:59;;;;;;;95.35;20.83;;;13.00;99.90;;;;;;5021134;28;20049;-72
2021/10/27 03:45:24;;;;;;;108.35;23.83;;;13.00;99.90;;;;;;5014673;28;20076;-72
2021/10/27 03:47:50;;;;;;;95.55;20.35;;;13.00;99.90;;;;;;5006971;28;20228;-72
2021/10/27 03:50:16;;;;;;;77.13;19.58;;;13.00;99.90;;;;;;5034452;28;20056;-72
2021/10/27 03:52:42;;;;;;;92.22;20.52;;;13.00;99.90;;;;;;5034463;28;20026;-73
2021/10/27 03:55:08;;;;;;;98.65;20.30;;;13.00;99.90;;;;;;5033859;28;20025;-73
2021/10/27 03:57:34;;;;;;;110.30;20.25;;;13.00;99.90;;;;;;5034352;28;20021;-72
2021/10/27 03:59:59;;;;;;;99.78;18.20;;;13.00;99.90;;;;;;5034065;28;20096;-73
2021/10/27 04:02:26;;;;;;;92.65;18.50;;;13.00;99.90;;;;;;5034239;28;20026;-73
2021/10/27 04:04:52;;;;;;;81.68;16.60;;;13.10;99.90;;;;;;5033723;28;20026;-73
2021/10/27 04:07:17;;;;;;;109.38;20.90;;;13.10;99.90;;;;;;5034092;28;20036;-73
2021/10/27 04:09:43;;;;;;;78.85;16.05;;;13.10;99.90;;;;;;5034152;28;20091;-73
2021/10/27 04:12:09;;;;;;;112.97;20.48;;;13.10;99.90;;;;;;5031815;28;20083;-72
2021/10/27 04:14:35;;;;;;;102.05;17.75;;;13.00;99.90;;;;;;5034015;28;20435;-72
2021/10/27 04:17:01;;;;;;;110.63;19.27;;;13.10;99.90;;;;;;5018110;28;20109;-73
2021/10/27 04:19:26;;;;;;;92.95;14.95;;;13.10;99.90;;;;;;5014268;28;20072;-72
2021/10/27 04:21:52;;;;;;;90.85;16.27;;;13.10;99.90;;;;;;5023925;28;20018;-73
2021/10/27 04:24:18;;;;;;;80.78;16.70;;;13.10;99.90;;;;;;5033839;28;20079;-72
2021/10/27 04:26:44;;;;;;;100.80;17.33;;;13.10;99.90;;;;;;5032605;28;20471;-73
2021/10/27 04:29:09;;;;;;;109.63;18.40;;;13.10;99.90;;;;;;5014003;28;20032;-73
2021/10/27 04:31:36;;;;;;;98.28;15.35;;;13.10;99.90;;;;;;5026277;28;20060;-73
2021/10/27 04:34:02;;;;;;;110.07;17.98;;;13.20;99.90;;;;;;5032435;28;20682;-72
2021/10/27 04:36:27;;;;;;;82.60;16.58;;;13.20;99.90;;;;;;5019355;28;20028;-73
2021/10/27 04:38:53;;;;;;;98.78;15.30;;;13.20;99.90;;;;;;5013203;28;20396;-73
2021/10/27 04:41:19;;;;;;;83.13;16.02;;;13.10;99.90;;;;;;5016085;28;20026;-73
2021/10/27 04:43:44;;;;;;;91.85;18.92;;;13.20;99.90;;;;;;5014197;28;20451;-73
2021/10/27 04:46:10;;;;;;;96.80;17.77;;;13.20;99.90;;;;;;5015726;28;20037;-72
2021/10/27 04:48:36;;;;;;;78.68;17.13;;;13.20;99.90;;;;;;5013756;28;20028;-73
2021/10/27 04:51:02;;;;;;;87.22;16.70;;;13.20;99.90;;;;;;5014119;28;20030;-73
2021/10/27 04:53:28;;;;;;;81.85;16.98;;;13.20;99.90;;;;;;5033363;28;20061;-73
2021/10/27 04:55:54;;;;;;;90.60;16.58;;;13.20;99.90;;;;;;5033328;28;20021;-73
2021/10/27 04:58:21;;;;;;;95.88;16.67;;;13.20;99.90;;;;;;5030126;28;20022;-73
2021/10/27 05:00:46;;;;;;;92.82;16.15;;;13.10;99.90;;;;;;5014210;28;20026;-73
2021/10/27 05:03:12;;;;;;;101.25;20.25;;;13.20;99.90;;;;;;5013039;28;20029;-73
2021/10/27 05:05:46;;;;;;;93.50;15.85;;;13.10;99.90;;;;;;5013720;28;20029;-73
2021/10/27 05:08:12;;;;;;;94.95;16.80;;;13.10;99.90;;;;;;5031348;28;20030;-73
2021/10/27 05:10:37;;;;;;;105.85;16.20;;;13.10;99.90;;;;;;5033146;28;20029;-73
2021/10/27 05:13:03;;;;;;;84.00;14.50;;;13.20;99.90;;;;;;5015558;28;20033;-73
2021/10/27 05:15:28;;;;;;;101.82;17.00;;;13.10;99.90;;;;;;5032388;28;20449;-73
2021/10/27 05:17:54;;;;;;;104.07;17.15;;;13.10;99.90;;;;;;5033131;28;20022;-73
2021/10/27 05:20:19;;;;;;;91.35;15.20;;;13.20;99.90;;;;;;5033150;28;20025;-73
2021/10/27 05:22:45;;;;;;;94.22;17.33;;;13.20;99.90;;;;;;5032846;28;20044;-73
2021/10/27 05:25:10;;;;;;;102.38;14.45;;;13.20;99.90;;;;;;5032547;28;20104;-72
2021/10/27 05:27:37;;;;;;;85.40;13.30;;;13.20;99.90;;;;;;5032989;28;20024;-73
2021/10/27 05:30:04;;;;;;;96.93;13.73;;;13.20;99.90;;;;;;5033050;28;20026;-73
2021/10/27 05:32:30;;;;;;;85.88;14.35;;;13.20;99.90;;;;;;5032832;28;20504;-73
2021/10/27 05:34:55;;;;;;;106.40;16.77;;;13.20;99.90;;;;;;5032356;28;20033;-73
2021/10/27 05:37:21;;;;;;;85.47;13.23;;;13.20;99.90;;;;;;5032860;28;20029;-73
2021/10/27 05:39:47;;;;;;;94.50;13.15;;;13.10;99.90;;;;;;5031565;28;20431;-73
2021/10/27 05:42:18;;;;;;;77.65;12.07;;;13.20;99.90;;;;;;5032927;28;20369;-73
2021/10/27 05:44:47;;;;;;;78.13;13.45;;;13.20;99.90;;;;;;5119005;22;20108;-67
2021/10/27 05:47:13;;;;;;;76.68;11.73;;;13.20;99.90;;;;;;5013326;28;20029;-67
2021/10/27 05:49:57;;;;;;;85.93;12.00;;;13.20;99.90;;;;;;5014091;28;20392;-67
2021/10/27 05:55:04;;;;;;;91.88;14.32;;;13.20;99.90;;;;;;5035637;28;20025;-67
2021/10/27 05:57:34;;;;;;;81.55;11.27;;;13.20;99.90;;;;;;5037232;28;20021;-67
2021/10/27 06:00:00;;;;;;;79.35;12.52;;;13.20;99.90;;;;;;5034762;28;20022;-67
2021/10/27 06:02:25;;;;;;;98.93;15.05;;;13.30;99.90;;;;;;5036436;28;20048;-67
2021/10/27 06:04:51;;;;;;;101.60;12.98;;;13.20;99.90;;;;;;5036647;28;20025;-67
2021/10/27 06:07:16;;;;;;;82.30;13.02;;;13.20;99.90;;;;;;5035954;28;20464;-67
2021/10/27 06:09:42;;;;;;;83.63;13.93;;;13.20;99.90;;;;;;5036270;28;20037;-67
2021/10/27 06:12:13;;;;;;;98.45;15.25;;;13.20;99.90;;;;;;5036369;28;20025;-67
2021/10/27 06:14:38;;;;;;;80.93;13.40;;;13.20;99.90;;;;;;5034975;28;20017;-67
2021/10/27 06:17:04;;;;;;;94.30;13.93;;;13.20;99.90;;;;;;5036249;28;20034;-67
2021/10/27 06:19:29;;;;;;;111.93;15.45;;;13.20;99.90;;;;;;5035951;28;20025;-67
2021/10/27 06:21:55;;;;;;;68.45;13.20;;;13.20;99.90;;;;;;5036508;28;20102;-67
2021/10/27 06:24:21;;;;;;;88.80;14.88;;;13.20;99.90;;;;;;5036341;28;20032;-67
2021/10/27 06:26:47;;;;;;;89.97;13.75;;;13.20;99.90;;;;;;5036161;28;20021;-67
2021/10/27 06:29:21;;;;;;;85.97;12.88;;;13.20;99.90;;;;;;5036239;28;20028;-68
2021/10/27 06:31:51;;;;;;;89.00;13.55;;;13.20;99.90;;;;;;5035501;28;20033;-67
2021/10/27 06:34:33;;;;;;;86.05;14.00;;;13.10;99.90;;;;;;5035969;28;20036;-67
2021/10/27 06:37:10;;;;;;;84.38;13.27;;;13.20;99.90;;;;;;5036257;28;20075;-67
2021/10/27 06:47:49;;;;;;;70.50;12.15;;;13.20;99.90;;;;;;5036042;28;20076;-67
2021/10/27 06:50:15;;;;;;;88.80;13.60;;;13.10;99.90;;;;;;5017877;28;20033;-67
2021/10/27 06:52:40;;;;;;;85.25;14.40;;;13.10;99.90;;;;;;5035636;28;20465;-67
2021/10/27 06:55:06;;;;;;;72.22;11.88;;;13.20;99.90;;;;;;5035133;28;20080;-67
2021/10/27 06:57:34;;;;;;;71.45;11.90;;;13.20;99.90;;;;;;5035853;28;20083;-67
2021/10/27 07:00:04;;;;;;;79.05;13.45;;;13.20;99.90;;;;;;5035291;28;20448;-67
2021/10/27 07:16:01;;;;;;;85.45;12.48;;;13.20;99.90;;;;;;5035269;28;20491;-68
2021/10/27 07:18:27;;;;;;;64.55;11.95;;;13.20;99.90;;;;;;5035372;28;20041;-68
2021/10/27 07:20:53;;;;;;;75.90;10.30;;;13.20;99.90;;;;;;5034608;28;20100;-67
2021/10/27 07:23:18;;;;;;;73.43;12.00;;;13.20;99.90;;;;;;5035071;28;20041;-67
2021/10/27 07:25:44;;;;;;;70.10;14.73;;;13.20;99.90;;;;;;5034971;28;20037;-67
2021/10/27 07:28:10;;;;;;;71.82;10.80;;;13.20;99.90;;;;;;5035276;28;20053;-68
2021/10/27 07:30:36;;;;;;;72.45;12.23;;;13.30;99.90;;;;;;5035414;28;20429;-67
2021/10/27 07:33:02;;;;;;;86.20;12.45;;;13.30;99.90;;;;;;5034363;28;20105;-67
2021/10/27 07:35:41;;;;;;;79.82;11.05;;;13.30;99.90;;;;;;5035018;28;20097;-67
2021/10/27 07:40:50;;;;;;;93.93;10.60;;;13.30;99.90;;;;;;5035072;28;20040;-67
2021/10/27 07:43:18;;;;;;;62.20;10.43;;;13.30;99.90;;;;;;5034904;28;20037;-67
2021/10/27 07:45:45;;;;;;;79.00;10.90;;;13.30;99.90;;;;;;5034527;28;20400;-67
2021/10/27 07:48:12;;;;;;;67.07;9.77;;;13.30;99.90;;;;;;5034069;28;20049;-67
2021/10/27 07:50:38;;;;;;;80.13;11.48;;;13.30;99.90;;;;;;5034506;28;20017;-67
2021/10/27 07:53:07;;;;;;;71.90;11.25;;;13.30;99.90;;;;;;5016772;28;20026;-67
2021/10/27 07:55:38;;;;;;;72.80;11.68;;;13.30;99.90;;;;;;5034902;28;20021;-67
2021/10/27 07:58:04;;;;;;;65.60;9.00;;;13.30;99.90;;;;;;5034974;28;20472;-68
2021/10/27 08:00:29;;;;;;;59.80;8.45;;;13.40;99.90;;;;;;5032561;28;20136;-68
2021/10/27 08:03:00;;;;;;;65.68;8.85;;;13.40;99.90;;;;;;5034875;28;20033;-67
2021/10/27 08:05:30;;;;;;;85.65;12.13;;;13.40;99.90;;;;;;5034528;28;20384;-67
2021/10/27 08:07:57;;;;;;;60.08;8.90;;;13.40;99.90;;;;;;5034539;28;20022;-67
2021/10/27 08:10:24;;;;;;;60.65;9.27;;;13.40;99.90;;;;;;5034387;28;20392;-68
2021/10/27 08:12:50;;;;;;;64.53;9.75;;;13.40;99.90;;;;;;5033500;28;20026;-67
2021/10/27 08:15:20;;;;;;;55.42;8.93;;;13.40;99.90;;;;;;5033528;28;20021;-67
2021/10/27 08:17:47;;;;;;;77.78;9.70;;;13.40;99.90;;;;;;5034050;28;20017;-67
2021/10/27 08:20:15;;;;;;;58.05;7.22;;;13.40;99.90;;;;;;5033975;28;20033;-68
2021/10/27 08:22:44;;;;;;;76.00;8.63;;;13.40;99.90;;;;;;5034213;28;20029;-68
2021/10/27 08:25:19;;;;;;;66.82;10.52;;;13.50;99.90;;;;;;5033828;28;20022;-67
2021/10/27 08:27:45;;;;;;;38.28;6.93;;;13.50;99.90;;;;;;5033362;28;20105;-67
2021/10/27 08:30:12;;;;;;;55.70;6.63;;;13.50;99.90;;;;;;5033958;28;20508;-68
2021/10/27 08:32:54;;;;;;;72.70;11.23;;;13.50;99.90;;;;;;5034013;28;20026;-68
2021/10/27 08:35:21;;;;;;;61.75;8.75;;;13.60;99.90;;;;;;5016024;28;20049;-67
2021/10/27 08:37:49;;;;;;;66.78;9.18;;;13.50;99.90;;;;;;5033696;28;20550;-68
2021/10/27 08:40:20;;;;;;;46.05;8.60;;;13.50;99.90;;;;;;5033101;28;20074;-68
2021/10/27 08:42:46;;;;;;;39.38;6.70;;;13.50;99.90;;;;;;5033944;28;20017;-67
2021/10/27 08:45:13;;;;;;;60.70;7.82;;;13.50;99.90;;;;;;5033385;28;20029;-67
2021/10/27 08:47:46;;;;;;;56.10;8.15;;;13.50;99.90;;;;;;5033566;28;20029;-67
2021/10/27 08:50:14;;;;;;;57.75;7.60;;;13.50;99.90;;;;;;5033543;28;20030;-67
2021/10/27 08:52:40;;;;;;;48.67;7.38;;;13.50;99.90;;;;;;5032928;28;20029;-67
2021/10/27 08:55:06;;;;;;;56.25;8.02;;;13.50;99.90;;;;;;5033591;28;20140;-67
2021/10/27 08:57:33;;;;;;;61.47;7.25;;;13.50;99.90;;;;;;5033421;28;20389;-68
2021/10/27 09:16:35;;;;;;;60.53;8.93;;;13.50;99.90;;;;;;5033692;28;20036;-67
2021/10/27 09:36:12;;;;;;;52.05;7.25;;;13.70;99.90;;;;;;5036947;28;20333;-68
2021/10/27 09:44:35;;;;;;;37.58;5.72;;;13.70;99.90;;;;;;5037428;28;20031;-68
2021/10/27 10:04:03;;;;;;;54.65;8.88;;;13.70;99.90;;;;;;5036797;28;20032;-68
2021/10/27 10:06:30;;;;;;;49.65;6.78;;;13.70;99.90;;;;;;5036600;28;20040;-67
2021/10/27 10:08:57;;;;;;;47.35;7.22;;;13.60;99.90;;;;;;5036802;28;20030;-67
2021/10/27 10:11:25;;;;;;;59.47;7.90;;;13.60;99.90;;;;;;5036377;28;20052;-68
2021/10/27 10:13:52;;;;;;;61.10;8.35;;;13.60;99.90;;;;;;5035863;28;20030;-67
2021/10/27 10:16:18;;;;;;;48.83;8.63;;;13.60;99.90;;;;;;5036335;28;20021;-67
2021/10/27 10:18:46;;;;;;;58.60;8.10;;;13.60;99.90;;;;;;5036333;28;20031;-68
2021/10/27 10:21:18;;;;;;;47.53;7.03;;;13.60;99.90;;;;;;5036277;28;20029;-67
2021/10/27 10:23:44;;;;;;;48.72;7.32;;;13.60;99.90;;;;;;5036554;28;20017;-67
2021/10/27 10:26:10;;;;;;;64.50;8.18;;;13.70;99.90;;;;;;5034290;28;20024;-67
2021/10/27 10:28:41;;;;;;;66.93;8.85;;;13.80;99.90;;;;;;5036081;28;20076;-67
2021/10/27 10:31:08;;;;;;;49.20;8.15;;;13.80;99.90;;;;;;5035999;28;20074;-68
2021/10/27 10:33:42;;;;;;;65.78;7.95;;;13.80;99.90;;;;;;5035451;28;20044;-67
2021/10/27 10:36:26;;;;;;;;;;;13.90;99.90;;;;;;5035706;28;20488;-68
2021/10/27 11:38:35;;;;;;;67.97;10.93;;;13.60;99.90;;;;;;5010242;28;20024;-67
2021/10/27 11:41:13;;;;;;;67.25;9.15;;;13.50;99.90;;;;;;4995795;28;20022;-67
2021/10/27 11:44:10;;;;;;;73.25;10.25;;;13.50;99.90;;;;;;4997919;28;20041;-67
2021/10/27 11:47:07;;;;;;;67.32;10.23;;;13.50;99.90;;;;;;5131328;22;20526;-72
2021/10/27 11:49:41;;;;;;;53.03;9.10;;;13.50;99.90;;;;;;5053284;28;20049;-72
2021/10/27 11:52:09;;;;;;;89.18;16.95;;;13.50;99.90;;;;;;5054279;28;20024;-72
2021/10/27 11:54:40;;;;;;;65.00;15.68;;;13.50;99.90;;;;;;5053912;28;20446;-72
2021/10/27 11:57:10;;;;;;;68.55;10.50;;;13.60;99.90;;;;;;5052675;28;20045;-73
2021/10/27 11:59:51;;;;;;;64.75;9.88;;;13.60;99.90;;;;;;5053905;28;20044;-72
2021/10/27 12:02:18;;;;;;;64.97;10.00;;;13.60;99.90;;;;;;5053008;28;20032;-72
2021/10/27 12:04:44;;;;;;;74.95;11.40;;;13.60;99.90;;;;;;5053425;28;20484;-73
2021/10/27 12:18:11;;;;;;;66.03;10.73;;;13.70;99.90;;;;;;5012396;28;20068;-73
2021/10/27 12:20:52;;;;;;;51.25;11.50;;;13.70;99.90;;;;;;5053477;28;20044;-74
2021/10/27 12:23:19;;;;;;;58.08;11.65;;;13.70;99.90;;;;;;5053932;28;20021;-73
2021/10/27 12:25:45;;;;;;;53.75;10.82;;;13.70;99.90;;;;;;5053877;28;20445;-73
2021/10/27 12:28:26;;;;;;;52.17;10.60;;;13.70;99.90;;;;;;5053647;28;20107;-72
2021/10/27 12:30:52;;;;;;;48.85;9.32;;;13.80;99.90;;;;;;5053732;28;20025;-76
2021/10/27 12:33:34;;;;;;;44.97;10.20;;;13.80;99.90;;;;;;5053109;28;20122;-76
2021/10/27 12:36:23;;;;;;;61.80;10.65;;;13.70;99.90;;;;;;5052879;28;20021;-76
2021/10/27 12:39:12;;;;;;;43.83;11.73;;;13.80;99.90;;;;;;5050119;28;20021;-77
2021/10/27 12:41:38;;;;;;;54.42;10.02;;;13.80;99.90;;;;;;5053926;28;20471;-77
2021/10/27 12:44:21;;;;;;;59.88;10.45;;;13.80;99.90;;;;;;5052785;28;20056;-76
2021/10/27 12:46:48;;;;;;;58.55;10.50;;;13.80;99.90;;;;;;5052270;28;20055;-77
2021/10/27 12:49:18;;;;;;;46.50;9.95;;;13.80;99.90;;;;;;5053332;28;20053;-77
2021/10/27 12:51:45;;;;;;;57.15;9.68;;;13.80;99.90;;;;;;5053923;28;20021;-77
2021/10/27 12:54:10;;;;;;;53.55;10.93;;;13.80;99.90;;;;;;5052663;28;20373;-77
2021/10/27 12:56:36;;;;;;;48.15;10.07;;;13.80;99.90;;;;;;5052979;28;20044;-77
2021/10/27 12:59:06;;;;;;;56.15;9.48;;;13.80;99.90;;;;;;5043558;28;20021;-77
2021/10/27 13:01:49;;;;;;;43.08;8.65;;;13.80;99.90;;;;;;5033524;28;20076;-78
2021/10/27 13:04:27;;;;;;;48.97;9.73;;;13.80;99.90;;;;;;5052340;28;20108;-77
2021/10/27 13:17:38;;;;;;;45.92;10.77;;;13.80;99.90;;;;;;5053687;28;20033;-77
2021/10/27 13:23:24;;;;;;;53.90;10.25;;;13.80;99.90;;;;;;4992486;28;20149;-77
2021/10/27 13:31:20;;;;;;;54.95;9.35;;;13.80;99.90;;;;;;5052122;28;20086;-77
2021/10/27 13:33:46;;;;;;;42.95;7.93;;;13.80;99.90;;;;;;5054269;28;20028;-78
2021/10/27 13:36:11;;;;;;;36.97;7.10;;;13.80;99.90;;;;;;5054108;28;20025;-78
2021/10/27 13:38:37;;;;;;;50.75;10.10;;;13.80;99.90;;;;;;5054682;28;20091;-77
2021/10/27 13:41:06;;;;;;;49.55;8.70;;;13.80;99.90;;;;;;5053543;28;20075;-77
2021/10/27 13:43:40;;;;;;;51.50;9.88;;;13.80;99.90;;;;;;5053832;28;20024;-77
2021/10/27 13:46:19;;;;;;;43.22;8.13;;;13.70;99.90;;;;;;5053652;28;20053;-78
2021/10/27 13:49:54;;;;;;;42.35;7.80;;;13.80;99.90;;;;;;5054983;28;20025;-78
2021/10/27 14:08:09;;;;;;;;;;;13.80;99.90;;;;;;5052876;28;20083;-73
2021/10/27 14:10:45;;;;;;;36.97;8.73;;;13.90;99.90;;;;;;5053944;28;19995;-73
2021/10/27 14:13:21;;;;;;;60.70;10.32;;;13.80;99.90;;;;;;5056432;28;20048;-73
2021/10/27 14:40:16;;;;;;;37.03;7.65;;;13.80;99.90;;;;;;5054138;28;20063;-73
2021/10/27 14:48:25;;;;;;;58.72;8.45;;;13.80;99.90;;;;;;5042250;28;20032;-76
2021/10/27 14:51:05;;;;;;;43.72;8.73;;;13.80;99.90;;;;;;5055634;28;20036;-73
2021/10/27 15:42:00;;;;;;;33.85;6.40;;;13.70;99.90;;;;;;5033930;28;20048;-73
2021/10/27 15:50:35;;;;;;;41.90;5.70;;;13.70;99.90;;;;;;5054701;28;20055;-73
2021/10/27 15:52:32;;;;;;;39.72;9.63;;;13.70;99.90;;;;;;5053615;28;20519;-74
2021/10/27 15:54:58;;;;;;;44.88;6.45;;;13.70;99.90;;;;;;5054005;28;20039;-73
2021/10/27 15:57:24;;;;;;;37.13;6.20;;;13.70;99.90;;;;;;5054216;28;20096;-73
2021/10/27 15:59:50;;;;;;;32.47;6.57;;;13.70;99.90;;;;;;5054649;28;20025;-74
2021/10/27 16:02:15;;;;;;;31.70;6.68;;;13.60;99.90;;;;;;5054272;28;20017;-73
2021/10/27 16:04:41;;;;;;;31.52;6.75;;;13.70;99.90;;;;;;5053732;28;20534;-73
2021/10/27 16:07:07;;;;;;;36.03;7.05;;;13.70;99.90;;;;;;5053972;28;20021;-73
2021/10/27 16:09:41;;;;;;;39.67;6.43;;;13.70;99.90;;;;;;5054254;28;20499;-73
2021/10/27 16:12:07;;;;;;;;;;;13.80;99.90;;;;;;5053465;28;20087;-73
2021/10/27 16:14:33;;;;;;;38.47;6.80;;;13.80;99.90;;;;;;5054668;28;20384;-73
2021/10/27 16:16:58;;;;;;;26.85;7.97;;;13.80;99.90;;;;;;5052641;28;20025;-74
2021/10/27 16:19:24;;;;;;;25.08;5.80;;;13.70;99.90;;;;;;5053852;28;20404;-73
2021/10/27 16:21:50;;;;;;;34.75;6.57;;;13.70;99.90;;;;;;5054271;28;20059;-73
2021/10/27 16:24:17;;;;;;;33.83;6.65;;;13.70;99.90;;;;;;5053204;28;20035;-73
2021/10/27 16:26:43;;;;;;;45.10;7.45;;;13.70;99.90;;;;;;5053310;28;20072;-73
2021/10/27 16:29:09;;;;;;;37.95;6.85;;;13.70;99.90;;;;;;5052822;28;20032;-73
2021/10/27 16:31:35;;;;;;;42.67;6.53;;;13.60;99.90;;;;;;5051541;28;20066;-73
2021/10/27 16:34:00;;;;;;;25.60;6.55;;;13.60;99.90;;;;;;5052302;28;20428;-73
2021/10/27 16:36:26;;;;;;;30.67;5.93;;;13.60;99.90;;;;;;5038617;28;20104;-73
2021/10/27 16:38:52;;;;;;;29.70;7.40;;;13.60;99.90;;;;;;5031972;28;20021;-74
2021/10/27 16:41:19;;;;;;;41.17;7.00;;;13.60;99.90;;;;;;5038041;28;20080;-74
2021/10/27 16:43:45;;;;;;;40.00;6.97;;;13.50;99.90;;;;;;5033669;28;20503;-73
2021/10/27 16:46:11;;;;;;;35.65;6.72;;;13.50;99.90;;;;;;5041850;28;20142;-74
2021/10/27 16:48:38;;;;;;;27.65;5.53;;;13.50;99.90;;;;;;5053242;28;20024;-74
2021/10/27 16:51:04;;;;;;;41.40;5.93;;;13.50;99.90;;;;;;5052889;28;20040;-74
2021/10/27 16:53:30;;;;;;;36.30;5.85;;;13.60;99.90;;;;;;5052647;28;20025;-73
2021/10/27 16:55:57;;;;;;;27.20;7.03;;;13.60;99.90;;;;;;5053262;28;20384;-74
2021/10/27 16:58:24;;;;;;;33.67;6.97;;;13.60;99.90;;;;;;5052322;28;20021;-74
2021/10/27 17:00:50;;;;;;;31.88;6.22;;;13.50;99.90;;;;;;5050854;28;20028;-73
2021/10/27 17:03:16;;;;;;;28.30;4.75;;;13.60;99.90;;;;;;5052156;28;20089;-74
2021/10/27 17:05:44;;;;;;;34.72;5.35;;;13.60;99.90;;;;;;5053225;28;20032;-73